Time;durP1;ratioP1;P1;durP2;ratioP2;P2;SDS_P1;SDS_P2;PMS_P1;PMS_P2;Temp;Humidity;BMP_temperature;BMP_pressure;BME280_temperature;BME280_humidity;BME280_pressure;Samples;Min_cycle;Max_cycle;Signal;HPM_P1;HPM_P2
2023/01/11 00:00:48;;;;;;;3.00;2.20;;;;;;;;;;5032942;28;20608;-80
2023/01/11 00:03:16;;;;;;;5.63;2.90;;;;;;;;;;5033018;28;20733;-81
2023/01/11 00:05:47;;;;;;;5.83;2.53;;;;;;;;;;5033058;28;20683;-81
2023/01/11 00:08:14;;;;;;;10.53;3.20;;;;;;;;;;5033041;28;20564;-81
2023/01/11 00:10:41;;;;;;;4.57;2.30;;;;;;;;;;5032580;28;20257;-81
2023/01/11 00:13:10;;;;;;;5.30;2.47;;;;;;;;;;5032924;28;20598;-81
2023/01/11 00:15:39;;;;;;;5.93;2.30;;;;;;;;;;5032862;28;20230;-81
2023/01/11 00:18:06;;;;;;;8.63;2.50;;;;;;;;;;5033011;28;20559;-81
2023/01/11 00:20:33;;;;;;;5.60;2.50;;;;;;;;;;5032640;28;20234;-81
2023/01/11 00:23:00;;;;;;;2.87;1.57;;;;;;;;;;5033126;28;20229;-81
2023/01/11 00:25:27;;;;;;;1.73;1.63;;;;;;;;;;5032488;28;20226;-80
2023/01/11 00:27:55;;;;;;;3.67;2.57;;;;;;;;;;5033044;28;20214;-81
2023/01/11 00:30:23;;;;;;;6.57;2.80;;;;;;;;;;5032345;28;20245;-82
2023/01/11 00:32:50;;;;;;;5.97;2.33;;;;;;;;;;5032736;28;20230;-81
2023/01/11 00:35:18;;;;;;;3.63;2.30;;;;;;;;;;5032399;28;20318;-81
2023/01/11 00:37:45;;;;;;;5.33;2.20;;;;;;;;;;5032531;28;20214;-81
2023/01/11 00:40:12;;;;;;;3.93;2.30;;;;;;;;;;5031834;28;20241;-81
2023/01/11 00:48:10;;;;;;;5.03;2.10;;;;;;;;;;5032396;28;20189;-80
2023/01/11 00:50:39;;;;;;;3.07;2.30;;;;;;;;;;5031926;28;20237;-81
2023/01/11 00:53:06;;;;;;;2.50;2.30;;;;;;;;;;5052331;22;20229;-85
2023/01/11 00:55:34;;;;;;;3.47;2.30;;;;;;;;;;5072338;28;20225;-85
2023/01/11 00:58:01;;;;;;;2.43;2.13;;;;;;;;;;5072663;28;20201;-85
2023/01/11 01:00:30;;;;;;;4.97;2.27;;;;;;;;;;5071659;28;20232;-85
2023/01/11 01:02:57;;;;;;;4.47;2.90;;;;;;;;;;5072454;28;20229;-85
2023/01/11 01:05:24;;;;;;;2.77;2.00;;;;;;;;;;5072106;28;20233;-85
2023/01/11 01:07:51;;;;;;;2.50;2.30;;;;;;;;;;5072409;28;20259;-85
2023/01/11 01:10:18;;;;;;;6.23;2.50;;;;;;;;;;5071712;28;20233;-84
2023/01/11 01:15:32;;;;;;;4.33;2.17;;;;;;;;;;5071636;28;20266;-85
2023/01/11 01:17:59;;;;;;;4.97;2.30;;;;;;;;;;5072195;28;20714;-85
2023/01/11 01:20:26;;;;;;;3.27;2.43;;;;;;;;;;5072182;28;20274;-85
2023/01/11 01:22:54;;;;;;;5.83;2.37;;;;;;;;;;5072004;28;20236;-84
2023/01/11 01:25:21;;;;;;;7.90;2.40;;;;;;;;;;5071975;28;20239;-85
2023/01/11 01:27:48;;;;;;;2.70;1.70;;;;;;;;;;5072270;28;20707;-85
2023/01/11 01:30:15;;;;;;;1.97;1.80;;;;;;;;;;5071606;28;20244;-85
2023/01/11 01:32:43;;;;;;;2.87;2.47;;;;;;;;;;5072135;28;20209;-84
2023/01/11 01:35:10;;;;;;;6.70;2.50;;;;;;;;;;5071826;28;20568;-85
2023/01/11 01:37:37;;;;;;;5.60;2.00;;;;;;;;;;5072126;28;20216;-85
2023/01/11 01:40:05;;;;;;;4.20;2.13;;;;;;;;;;5071684;28;20726;-85
2023/01/11 01:42:32;;;;;;;3.77;2.60;;;;;;;;;;5072043;28;20201;-84
2023/01/11 01:45:02;;;;;;;5.17;2.70;;;;;;;;;;5071724;28;20579;-85
2023/01/11 01:47:35;;;;;;;1.83;1.73;;;;;;;;;;5072198;28;20205;-85
2023/01/11 01:50:07;;;;;;;2.67;2.43;;;;;;;;;;5071366;28;20228;-85
2023/01/11 01:52:34;;;;;;;4.47;2.40;;;;;;;;;;5072065;28;20216;-85
2023/01/11 01:55:03;;;;;;;2.30;2.10;;;;;;;;;;5071388;28;20217;-85
2023/01/11 01:57:32;;;;;;;2.53;1.90;;;;;;;;;;5072188;28;20205;-85
2023/01/11 02:00:02;;;;;;;5.43;2.57;;;;;;;;;;5071506;28;20634;-86
2023/01/11 02:02:29;;;;;;;2.17;1.93;;;;;;;;;;5069333;28;20661;-85
2023/01/11 02:04:57;;;;;;;2.20;1.67;;;;;;;;;;5066310;28;20587;-85
2023/01/11 02:07:29;;;;;;;2.07;1.87;;;;;;;;;;5069137;28;20202;-85
2023/01/11 02:09:59;;;;;;;2.80;2.10;;;;;;;;;;5070882;28;20228;-85
2023/01/11 02:12:27;;;;;;;3.60;2.03;;;;;;;;;;5075807;28;20622;-85
2023/01/11 02:14:54;;;;;;;2.70;2.07;;;;;;;;;;5075317;28;20644;-85
2023/01/11 02:17:22;;;;;;;2.77;1.70;;;;;;;;;;5075547;28;20213;-86
2023/01/11 02:19:54;;;;;;;2.80;1.77;;;;;;;;;;5075438;28;20201;-86
2023/01/11 02:22:46;;;;;;;2.87;1.83;;;;;;;;;;5075783;28;20229;-85
2023/01/11 02:25:22;;;;;;;2.07;1.93;;;;;;;;;;5074816;28;20597;-85
2023/01/11 02:28:05;;;;;;;1.83;1.73;;;;;;;;;;5075297;28;20204;-85
2023/01/11 02:30:34;;;;;;;3.27;2.10;;;;;;;;;;5074803;28;20696;-85
2023/01/11 02:33:08;;;;;;;2.63;2.00;;;;;;;;;;5074753;28;20778;-85
2023/01/11 02:35:39;;;;;;;3.43;1.93;;;;;;;;;;5074826;28;20229;-85
2023/01/11 02:38:09;;;;;;;4.37;1.90;;;;;;;;;;5075214;28;20197;-85
2023/01/11 02:40:41;;;;;;;3.03;1.90;;;;;;;;;;5074651;28;20232;-86
2023/01/11 02:46:02;;;;;;;2.70;2.10;;;;;;;;;;5074726;28;20232;-85
2023/01/11 02:48:32;;;;;;;2.53;2.10;;;;;;;;;;5074821;28;20186;-86
2023/01/11 02:51:03;;;;;;;2.87;1.97;;;;;;;;;;5075385;28;20723;-85
2023/01/11 02:53:32;;;;;;;4.40;1.80;;;;;;;;;;5074789;28;20712;-85
2023/01/11 02:56:02;;;;;;;1.80;1.70;;;;;;;;;;5074240;28;20699;-86
2023/01/11 02:58:33;;;;;;;1.90;1.80;;;;;;;;;;5074873;28;20213;-85
2023/01/11 03:01:00;;;;;;;1.73;1.63;;;;;;;;;;5075902;28;20236;-86
2023/01/11 03:03:28;;;;;;;1.90;1.80;;;;;;;;;;5075272;28;20229;-85
2023/01/11 03:05:56;;;;;;;4.47;1.70;;;;;;;;;;5074084;28;20229;-86
2023/01/11 03:08:30;;;;;;;1.67;1.57;;;;;;;;;;5075574;28;20669;-85
2023/01/11 03:11:01;;;;;;;4.23;2.00;;;;;;;;;;5074195;28;20233;-85
2023/01/11 03:13:35;;;;;;;3.27;2.17;;;;;;;;;;5074518;28;20237;-85
2023/01/11 03:16:15;;;;;;;3.87;1.93;;;;;;;;;;5074488;28;20243;-85
2023/01/11 03:18:46;;;;;;;1.97;1.87;;;;;;;;;;5075456;28;20193;-85
2023/01/11 03:21:28;;;;;;;2.40;1.77;;;;;;;;;;5074057;28;20241;-85
2023/01/11 03:23:59;;;;;;;2.13;1.93;;;;;;;;;;5074113;28;20705;-85
2023/01/11 03:26:31;;;;;;;3.27;2.00;;;;;;;;;;5074357;28;20242;-84
2023/01/11 03:29:05;;;;;;;3.10;1.90;;;;;;;;;;5074606;28;20194;-86
2023/01/11 03:31:36;;;;;;;4.07;2.30;;;;;;;;;;5073900;28;20233;-85
2023/01/11 03:34:07;;;;;;;2.03;1.80;;;;;;;;;;5073974;28;20247;-85
2023/01/11 03:36:36;;;;;;;2.33;1.53;;;;;;;;;;5073902;28;20233;-85
2023/01/11 03:39:06;;;;;;;2.00;1.90;;;;;;;;;;5074372;28;20213;-86
2023/01/11 03:41:35;;;;;;;2.23;2.03;;;;;;;;;;5073642;28;20236;-85
2023/01/11 03:44:06;;;;;;;2.70;1.90;;;;;;;;;;5080069;28;20256;-85
2023/01/11 03:46:35;;;;;;;3.03;2.23;;;;;;;;;;5073459;28;20236;-85
2023/01/11 03:49:03;;;;;;;2.00;1.90;;;;;;;;;;5074545;28;20205;-85
2023/01/11 03:51:34;;;;;;;3.00;2.00;;;;;;;;;;5073399;28;20241;-85
2023/01/11 03:54:02;;;;;;;2.13;1.73;;;;;;;;;;5074524;28;20237;-85
2023/01/11 03:56:31;;;;;;;1.87;1.77;;;;;;;;;;5075770;28;20240;-85
2023/01/11 03:58:58;;;;;;;4.57;2.07;;;;;;;;;;5081013;28;20197;-84
2023/01/11 04:01:26;;;;;;;2.67;2.37;;;;;;;;;;5074307;28;20237;-86
2023/01/11 04:03:54;;;;;;;2.60;1.77;;;;;;;;;;5074366;28;20225;-85
2023/01/11 04:06:21;;;;;;;3.23;2.13;;;;;;;;;;5073514;28;20240;-85
2023/01/11 04:08:48;;;;;;;2.13;1.93;;;;;;;;;;5073830;28;20209;-85
2023/01/11 04:11:16;;;;;;;3.33;1.93;;;;;;;;;;5072846;28;20626;-85
2023/01/11 04:13:43;;;;;;;3.00;1.80;;;;;;;;;;5073090;28;20236;-84
2023/01/11 04:16:10;;;;;;;6.37;2.80;;;;;;;;;;5072931;28;20233;-86
2023/01/11 04:18:38;;;;;;;3.03;1.93;;;;;;;;;;5073723;28;20209;-85
2023/01/11 04:21:05;;;;;;;3.00;1.90;;;;;;;;;;5072883;28;20241;-85
2023/01/11 04:23:32;;;;;;;2.50;2.20;;;;;;;;;;5072835;28;20705;-85
2023/01/11 04:25:59;;;;;;;1.90;1.80;;;;;;;;;;5072592;28;20720;-85
2023/01/11 04:28:26;;;;;;;2.03;1.80;;;;;;;;;;5073101;28;20201;-85
2023/01/11 04:30:54;;;;;;;3.17;2.10;;;;;;;;;;5072721;28;20323;-85
2023/01/11 04:33:21;;;;;;;1.63;1.50;;;;;;;;;;5072440;28;20229;-85
2023/01/11 04:35:49;;;;;;;1.80;1.70;;;;;;;;;;5072210;28;20229;-85
2023/01/11 04:38:17;;;;;;;1.97;1.80;;;;;;;;;;5073359;28;20229;-86
2023/01/11 04:40:44;;;;;;;2.20;2.00;;;;;;;;;;5072432;28;20229;-85
2023/01/11 04:43:10;;;;;;;1.67;1.67;;;;;;;;;;5072499;28;20937;-85
2023/01/11 04:45:37;;;;;;;3.47;2.07;;;;;;;;;;5072533;28;20229;-85
2023/01/11 04:48:05;;;;;;;1.73;1.63;;;;;;;;;;5072952;28;20209;-85
2023/01/11 04:50:32;;;;;;;2.10;1.93;;;;;;;;;;5072292;28;20232;-85
2023/01/11 04:53:03;;;;;;;2.27;2.07;;;;;;;;;;5072308;28;20259;-85
2023/01/11 04:55:30;;;;;;;3.40;2.00;;;;;;;;;;5072388;28;20254;-86
2023/01/11 04:57:57;;;;;;;2.13;1.93;;;;;;;;;;5072851;28;20210;-86
2023/01/11 05:00:25;;;;;;;3.33;2.27;;;;;;;;;;5072359;28;20236;-86
2023/01/11 05:02:52;;;;;;;3.13;2.17;;;;;;;;;;5072992;28;20232;-85
2023/01/11 05:05:19;;;;;;;4.93;2.63;;;;;;;;;;5072263;28;20225;-86
2023/01/11 05:07:49;;;;;;;1.90;1.80;;;;;;;;;;5072593;28;20209;-86
2023/01/11 05:10:17;;;;;;;2.50;2.00;;;;;;;;;;5072142;28;20294;-85
2023/01/11 05:12:45;;;;;;;2.80;1.87;;;;;;;;;;5072710;28;20214;-85
2023/01/11 05:15:12;;;;;;;4.07;2.23;;;;;;;;;;5071420;28;20275;-84
2023/01/11 05:17:39;;;;;;;3.83;2.27;;;;;;;;;;5072611;28;20224;-85
2023/01/11 05:20:07;;;;;;;2.77;1.97;;;;;;;;;;5072182;28;20209;-85
2023/01/11 05:22:36;;;;;;;2.30;2.10;;;;;;;;;;5072295;28;20205;-84
2023/01/11 05:25:03;;;;;;;2.33;1.77;;;;;;;;;;5071833;28;20251;-85
2023/01/11 05:27:31;;;;;;;2.13;1.93;;;;;;;;;;5072655;28;20213;-85
2023/01/11 05:29:58;;;;;;;1.93;1.83;;;;;;;;;;5072089;28;20216;-85
2023/01/11 05:32:25;;;;;;;2.80;1.90;;;;;;;;;;5072629;28;20229;-84
2023/01/11 05:34:52;;;;;;;1.87;1.87;;;;;;;;;;5072320;28;20233;-85
2023/01/11 05:37:19;;;;;;;2.07;1.97;;;;;;;;;;5081241;28;20220;-85
2023/01/11 05:39:46;;;;;;;1.70;1.60;;;;;;;;;;5072665;28;20665;-85
2023/01/11 05:42:13;;;;;;;1.87;1.77;;;;;;;;;;5072562;28;20308;-85
2023/01/11 05:47:26;;;;;;;2.10;2.00;;;;;;;;;;5076836;28;20236;-85
2023/01/11 05:49:53;;;;;;;2.77;1.87;;;;;;;;;;5076655;28;20205;-84
2023/01/11 05:52:20;;;;;;;1.67;1.57;;;;;;;;;;5087867;28;20221;-85
2023/01/11 05:54:47;;;;;;;2.00;1.90;;;;;;;;;;5096250;28;20233;-82
2023/01/11 05:57:15;;;;;;;2.90;1.77;;;;;;;;;;5096429;28;20231;-84
2023/01/11 05:59:43;;;;;;;2.00;1.90;;;;;;;;;;5098555;28;20276;-84
2023/01/11 06:02:10;;;;;;;1.93;1.83;;;;;;;;;;5095783;28;20221;-86
2023/01/11 06:04:37;;;;;;;1.83;1.73;;;;;;;;;;5084907;28;20232;-84
2023/01/11 06:07:05;;;;;;;2.17;2.07;;;;;;;;;;5078578;28;20252;-85
2023/01/11 06:09:32;;;;;;;2.33;1.60;;;;;;;;;;5076752;28;20205;-86
2023/01/11 06:11:59;;;;;;;2.33;1.93;;;;;;;;;;5075712;28;20232;-83
2023/01/11 06:14:26;;;;;;;1.83;1.73;;;;;;;;;;5076601;28;20593;-82
2023/01/11 06:16:55;;;;;;;1.90;1.80;;;;;;;;;;5075299;28;20244;-83
2023/01/11 06:19:22;;;;;;;1.73;1.63;;;;;;;;;;5075230;28;20702;-83
2023/01/11 06:21:49;;;;;;;1.90;1.80;;;;;;;;;;5075031;28;20233;-84
2023/01/11 06:24:16;;;;;;;1.83;1.73;;;;;;;;;;5074852;28;20221;-83
2023/01/11 06:26:43;;;;;;;2.00;1.90;;;;;;;;;;5074602;28;20618;-84
2023/01/11 06:29:11;;;;;;;3.27;2.53;;;;;;;;;;5075175;28;20575;-84
2023/01/11 06:31:38;;;;;;;1.57;1.57;;;;;;;;;;5074725;28;20229;-84
2023/01/11 06:34:06;;;;;;;2.10;1.50;;;;;;;;;;5074786;28;20632;-83
2023/01/11 06:36:33;;;;;;;2.20;2.00;;;;;;;;;;5076704;28;20233;-83
2023/01/11 06:39:00;;;;;;;2.53;1.93;;;;;;;;;;5075812;28;20267;-83
2023/01/11 06:41:28;;;;;;;1.80;1.70;;;;;;;;;;5074572;28;20233;-83
2023/01/11 06:43:55;;;;;;;1.70;1.60;;;;;;;;;;5074637;28;20278;-83
2023/01/11 06:46:22;;;;;;;1.87;1.70;;;;;;;;;;5074440;28;20646;-84
2023/01/11 06:48:49;;;;;;;2.03;1.93;;;;;;;;;;5074805;28;20350;-83
2023/01/11 06:51:18;;;;;;;1.83;1.73;;;;;;;;;;5074754;28;20251;-84
2023/01/11 06:53:45;;;;;;;2.17;2.07;;;;;;;;;;5082027;23;20238;-76
2023/01/11 06:56:13;;;;;;;2.00;1.90;;;;;;;;;;5053307;28;20329;-76
2023/01/11 06:58:40;;;;;;;1.80;1.70;;;;;;;;;;5053638;28;20206;-77
2023/01/11 07:01:07;;;;;;;2.23;2.03;;;;;;;;;;5053696;28;20719;-77
2023/01/11 07:03:35;;;;;;;1.80;1.70;;;;;;;;;;5054054;28;20226;-76
2023/01/11 07:06:03;;;;;;;2.27;2.00;;;;;;;;;;5053641;28;20232;-76
2023/01/11 07:08:31;;;;;;;1.73;1.67;;;;;;;;;;5054224;28;20218;-77
2023/01/11 07:10:58;;;;;;;1.70;1.60;;;;;;;;;;5053509;28;20237;-77
2023/01/11 07:13:25;;;;;;;2.33;2.13;;;;;;;;;;5053638;28;20674;-77
2023/01/11 07:15:52;;;;;;;1.90;1.80;;;;;;;;;;5053659;28;20233;-77
2023/01/11 07:18:20;;;;;;;1.80;1.70;;;;;;;;;;5054129;28;20275;-77
2023/01/11 07:20:47;;;;;;;1.80;1.70;;;;;;;;;;5053365;28;20230;-77
2023/01/11 07:23:14;;;;;;;4.60;1.90;;;;;;;;;;5053262;28;20229;-77
2023/01/11 07:25:42;;;;;;;2.60;1.70;;;;;;;;;;5053279;28;20717;-77
2023/01/11 07:28:10;;;;;;;2.10;1.90;;;;;;;;;;5053693;28;20726;-77
2023/01/11 07:30:38;;;;;;;1.70;1.60;;;;;;;;;;5053167;28;20229;-77
2023/01/11 07:33:06;;;;;;;1.60;1.50;;;;;;;;;;5053083;28;20230;-77
2023/01/11 07:35:33;;;;;;;1.90;1.80;;;;;;;;;;5053166;28;20291;-77
2023/01/11 07:38:01;;;;;;;1.50;1.50;;;;;;;;;;5053496;28;20209;-77
2023/01/11 07:40:28;;;;;;;1.90;1.80;;;;;;;;;;5053012;28;20260;-77
2023/01/11 07:43:13;;;;;;;1.40;1.40;;;;;;;;;;5053101;28;20202;-77
2023/01/11 07:45:41;;;;;;;2.73;1.63;;;;;;;;;;5053033;28;20576;-77
2023/01/11 07:48:09;;;;;;;1.90;1.80;;;;;;;;;;5053105;28;20209;-77
2023/01/11 07:50:36;;;;;;;3.63;1.80;;;;;;;;;;5053107;28;20311;-77
2023/01/11 07:53:04;;;;;;;1.80;1.70;;;;;;;;;;5052984;28;20229;-77
2023/01/11 07:55:31;;;;;;;1.60;1.50;;;;;;;;;;5052491;28;20231;-76
2023/01/11 07:57:59;;;;;;;2.03;1.93;;;;;;;;;;5053145;28;20213;-76
2023/01/11 08:00:26;;;;;;;1.20;1.20;;;;;;;;;;5052865;28;20237;-77
2023/01/11 08:02:53;;;;;;;2.90;2.47;;;;;;;;;;5052855;28;20674;-77
2023/01/11 08:05:21;;;;;;;2.43;1.67;;;;;;;;;;5052447;28;20237;-78
2023/01/11 08:07:48;;;;;;;2.30;1.70;;;;;;;;;;5052913;28;20214;-77
2023/01/11 08:10:15;;;;;;;2.27;2.07;;;;;;;;;;5052574;28;20237;-78
2023/01/11 08:15:29;;;;;;;3.03;2.50;;;;;;;;;;5052613;28;20278;-78
2023/01/11 08:17:56;;;;;;;1.83;1.73;;;;;;;;;;5052682;28;20233;-78
2023/01/11 08:20:25;;;;;;;2.00;1.90;;;;;;;;;;5052457;28;20230;-78
2023/01/11 08:22:53;;;;;;;1.50;1.50;;;;;;;;;;5052526;28;20289;-78
2023/01/11 08:25:20;;;;;;;2.40;2.20;;;;;;;;;;5052305;28;20249;-77
2023/01/11 08:27:47;;;;;;;2.53;1.83;;;;;;;;;;5052908;28;20578;-78
2023/01/11 08:30:14;;;;;;;1.87;1.77;;;;;;;;;;5051996;28;20229;-78
2023/01/11 08:32:43;;;;;;;1.83;1.73;;;;;;;;;;5052245;28;20222;-78
2023/01/11 08:35:10;;;;;;;2.17;1.87;;;;;;;;;;5051840;28;20241;-78
2023/01/11 08:37:37;;;;;;;1.70;1.60;;;;;;;;;;5052664;28;20216;-78
2023/01/11 08:40:04;;;;;;;2.10;2.00;;;;;;;;;;5051888;28;20214;-78
2023/01/11 08:42:32;;;;;;;1.60;1.57;;;;;;;;;;5052502;28;20213;-78
2023/01/11 08:44:59;;;;;;;1.73;1.63;;;;;;;;;;5051673;28;20252;-77
2023/01/11 08:47:26;;;;;;;2.57;1.57;;;;;;;;;;5052392;28;20264;-78
2023/01/11 08:49:55;;;;;;;1.70;1.60;;;;;;;;;;5051795;28;20210;-78
2023/01/11 08:52:22;;;;;;;1.60;1.50;;;;;;;;;;5052027;28;20253;-76
2023/01/11 08:54:49;;;;;;;1.47;1.47;;;;;;;;;;5051701;28;20639;-77
2023/01/11 08:57:16;;;;;;;1.33;1.33;;;;;;;;;;5052189;28;20264;-76
2023/01/11 08:59:43;;;;;;;2.07;1.60;;;;;;;;;;5052007;28;20666;-76
2023/01/11 09:02:12;;;;;;;1.40;1.40;;;;;;;;;;5052786;28;20251;-76
2023/01/11 09:04:39;;;;;;;1.80;1.70;;;;;;;;;;5051964;28;20232;-77
2023/01/11 09:07:08;;;;;;;1.80;1.70;;;;;;;;;;5051471;28;20740;-77
2023/01/11 09:09:35;;;;;;;1.57;1.50;;;;;;;;;;5052017;28;20202;-77
2023/01/11 09:12:03;;;;;;;2.40;1.77;;;;;;;;;;5051448;28;20242;-77
2023/01/11 09:14:30;;;;;;;1.10;1.10;;;;;;;;;;5051849;28;20279;-77
2023/01/11 09:16:57;;;;;;;1.63;1.53;;;;;;;;;;5051321;28;20271;-77
2023/01/11 09:19:24;;;;;;;1.93;1.83;;;;;;;;;;5051422;28;20233;-76
2023/01/11 09:21:52;;;;;;;1.80;1.70;;;;;;;;;;5051010;28;20628;-77
2023/01/11 09:24:20;;;;;;;1.63;1.53;;;;;;;;;;5051579;28;20222;-77
2023/01/11 09:26:47;;;;;;;2.03;1.90;;;;;;;;;;5051157;28;20265;-77
2023/01/11 09:29:15;;;;;;;1.63;1.53;;;;;;;;;;5051590;28;20209;-77
2023/01/11 09:31:42;;;;;;;2.00;1.80;;;;;;;;;;5051049;28;20736;-76
2023/01/11 09:34:11;;;;;;;1.80;1.70;;;;;;;;;;5051180;28;20217;-77
2023/01/11 09:36:39;;;;;;;2.17;1.90;;;;;;;;;;5051095;28;20244;-76
2023/01/11 09:39:09;;;;;;;1.43;1.33;;;;;;;;;;5051531;28;20666;-76
2023/01/11 09:41:52;;;;;;;1.60;1.50;;;;;;;;;;5051251;28;20234;-76
2023/01/11 09:44:24;;;;;;;2.27;1.90;;;;;;;;;;5051449;28;20232;-76
2023/01/11 09:46:53;;;;;;;1.90;1.80;;;;;;;;;;5051095;28;20240;-76
2023/01/11 09:49:22;;;;;;;1.87;1.77;;;;;;;;;;5051652;28;20236;-76
2023/01/11 09:51:50;;;;;;;1.83;1.73;;;;;;;;;;5050951;28;20242;-76
2023/01/11 09:54:19;;;;;;;1.63;1.53;;;;;;;;;;5050755;28;20248;-77
2023/01/11 09:56:52;;;;;;;1.63;1.53;;;;;;;;;;5051061;28;20233;-76
2023/01/11 09:59:25;;;;;;;1.77;1.43;;;;;;;;;;5052183;28;20740;-77
2023/01/11 10:01:56;;;;;;;1.63;1.53;;;;;;;;;;5054244;28;20229;-77
2023/01/11 10:04:44;;;;;;;1.50;1.50;;;;;;;;;;5051855;28;20248;-77
2023/01/11 10:07:18;;;;;;;1.47;1.43;;;;;;;;;;5046373;28;20240;-77
2023/01/11 10:09:53;;;;;;;1.83;1.73;;;;;;;;;;5051976;28;20287;-77
2023/01/11 10:12:27;;;;;;;1.63;1.53;;;;;;;;;;5051246;28;20236;-77
2023/01/11 10:15:00;;;;;;;2.03;1.90;;;;;;;;;;5051057;28;20607;-77
2023/01/11 10:17:36;;;;;;;1.80;1.70;;;;;;;;;;5051828;28;20206;-77
2023/01/11 10:20:08;;;;;;;1.77;1.77;;;;;;;;;;5051351;28;20575;-76
2023/01/11 10:22:39;;;;;;;1.40;1.40;;;;;;;;;;5051415;28;20206;-77
2023/01/11 10:25:13;;;;;;;1.93;1.83;;;;;;;;;;5051166;28;20321;-77
2023/01/11 10:27:48;;;;;;;1.50;1.40;;;;;;;;;;5051571;28;20207;-76
2023/01/11 10:30:34;;;;;;;1.63;1.53;;;;;;;;;;5051186;28;20747;-77
2023/01/11 10:33:17;;;;;;;2.23;2.10;;;;;;;;;;5054765;28;20221;-76
2023/01/11 10:35:57;;;;;;;2.30;2.10;;;;;;;;;;5055311;28;20230;-76
2023/01/11 10:38:41;;;;;;;2.00;1.90;;;;;;;;;;5056108;28;20205;-76
2023/01/11 10:41:18;;;;;;;2.33;2.13;;;;;;;;;;5055864;28;20233;-78
2023/01/11 10:43:49;;;;;;;3.00;1.80;;;;;;;;;;5055163;28;20697;-77
2023/01/11 10:46:17;;;;;;;1.73;1.63;;;;;;;;;;5054510;28;20244;-76
2023/01/11 10:48:45;;;;;;;1.90;1.80;;;;;;;;;;5055100;28;20210;-77
2023/01/11 10:51:15;;;;;;;1.80;1.70;;;;;;;;;;5054602;28;20234;-77
2023/01/11 10:53:44;;;;;;;1.83;1.63;;;;;;;;;;5054403;28;20234;-77
2023/01/11 10:56:19;;;;;;;1.83;1.73;;;;;;;;;;5054569;28;20320;-77
2023/01/11 10:58:54;;;;;;;2.93;1.93;;;;;;;;;;5054882;28;20206;-77
2023/01/11 11:01:31;;;;;;;1.80;1.70;;;;;;;;;;5054553;28;20608;-78
2023/01/11 11:04:11;;;;;;;1.60;1.50;;;;;;;;;;5054446;28;20307;-78
2023/01/11 11:06:42;;;;;;;1.20;1.20;;;;;;;;;;5054293;28;20245;-77
2023/01/11 11:09:13;;;;;;;1.70;1.60;;;;;;;;;;5054621;28;20217;-77
2023/01/11 11:11:45;;;;;;;1.20;1.20;;;;;;;;;;5054336;28;20233;-76
2023/01/11 11:14:16;;;;;;;1.40;1.40;;;;;;;;;;5054415;28;20297;-77
2023/01/11 11:16:56;;;;;;;1.40;1.30;;;;;;;;;;5054183;28;20878;-78
2023/01/11 11:19:25;;;;;;;1.40;1.30;;;;;;;;;;5054470;28;20202;-78
2023/01/11 11:21:53;;;;;;;1.70;1.60;;;;;;;;;;5054138;28;20233;-78
2023/01/11 11:24:22;;;;;;;1.47;1.47;;;;;;;;;;5054196;28;20608;-78
2023/01/11 11:26:52;;;;;;;1.77;1.43;;;;;;;;;;5054084;28;20234;-78
2023/01/11 11:29:27;;;;;;;1.50;1.50;;;;;;;;;;5054022;28;20217;-78
2023/01/11 11:31:55;;;;;;;1.60;1.50;;;;;;;;;;5053851;28;20263;-77
2023/01/11 11:34:26;;;;;;;1.80;1.70;;;;;;;;;;5053490;28;20218;-78
2023/01/11 11:36:53;;;;;;;1.70;1.60;;;;;;;;;;5053393;28;20781;-77
2023/01/11 11:39:21;;;;;;;2.03;1.93;;;;;;;;;;5053980;28;20213;-77
2023/01/11 11:41:49;;;;;;;1.80;1.70;;;;;;;;;;5053154;28;20233;-78
2023/01/11 11:44:18;;;;;;;2.03;1.93;;;;;;;;;;5052569;28;20308;-77
2023/01/11 11:46:58;;;;;;;1.70;1.60;;;;;;;;;;5053157;28;20291;-77
2023/01/11 11:49:25;;;;;;;2.20;2.10;;;;;;;;;;5053509;28;20568;-77
2023/01/11 11:51:53;;;;;;;2.10;2.00;;;;;;;;;;5053054;28;20257;-77
2023/01/11 11:54:21;;;;;;;1.50;1.50;;;;;;;;;;5052887;28;20240;-77
2023/01/11 11:56:49;;;;;;;2.03;1.93;;;;;;;;;;5053002;28;20296;-77
2023/01/11 11:59:17;;;;;;;1.60;1.60;;;;;;;;;;5053246;28;20217;-77
2023/01/11 12:01:46;;;;;;;1.80;1.70;;;;;;;;;;5052792;28;20725;-78
2023/01/11 12:04:16;;;;;;;1.70;1.60;;;;;;;;;;5052924;28;20233;-77
2023/01/11 12:06:44;;;;;;;1.70;1.60;;;;;;;;;;5052716;28;20229;-77
2023/01/11 12:09:12;;;;;;;2.00;1.90;;;;;;;;;;5053031;28;20194;-78
2023/01/11 12:11:41;;;;;;;1.90;1.80;;;;;;;;;;5052636;28;20321;-77
2023/01/11 12:14:17;;;;;;;1.60;1.50;;;;;;;;;;5052516;28;20234;-78
2023/01/11 12:16:45;;;;;;;1.70;1.60;;;;;;;;;;5052543;28;20260;-77
2023/01/11 12:19:30;;;;;;;1.90;1.80;;;;;;;;;;5052881;28;20735;-77
2023/01/11 12:22:15;;;;;;;3.47;2.00;;;;;;;;;;5052353;28;20230;-77
2023/01/11 12:24:42;;;;;;;1.93;1.83;;;;;;;;;;5052710;28;20225;-77
2023/01/11 12:27:14;;;;;;;2.00;1.90;;;;;;;;;;5052039;28;20233;-77
2023/01/11 12:29:47;;;;;;;2.30;2.20;;;;;;;;;;5052671;28;20205;-77
2023/01/11 12:32:20;;;;;;;1.87;1.77;;;;;;;;;;5052097;28;20673;-76
2023/01/11 12:34:56;;;;;;;2.00;1.80;;;;;;;;;;5052419;28;20234;-76
2023/01/11 12:37:29;;;;;;;2.47;2.37;;;;;;;;;;5052321;28;20217;-76
2023/01/11 12:39:59;;;;;;;2.60;2.40;;;;;;;;;;5051874;28;20206;-76
2023/01/11 12:42:35;;;;;;;1.80;1.70;;;;;;;;;;5052235;28;20208;-77
2023/01/11 12:45:07;;;;;;;2.40;2.20;;;;;;;;;;5051931;28;20656;-77
2023/01/11 12:47:47;;;;;;;1.90;1.80;;;;;;;;;;5052618;28;20214;-77
2023/01/11 12:50:20;;;;;;;2.00;1.90;;;;;;;;;;5051776;28;20237;-77
2023/01/11 12:53:03;;;;;;;2.30;1.87;;;;;;;;;;5052065;28;20713;-77
2023/01/11 12:55:40;;;;;;;2.93;2.60;;;;;;;;;;5063388;23;20605;-79
2023/01/11 12:58:12;;;;;;;2.73;2.53;;;;;;;;;;5044347;28;20209;-79
2023/01/11 13:00:48;;;;;;;2.93;2.63;;;;;;;;;;5052327;28;20230;-78
2023/01/11 13:03:32;;;;;;;2.43;2.20;;;;;;;;;;5052400;28;20201;-78
2023/01/11 13:06:02;;;;;;;3.50;3.07;;;;;;;;;;5032011;28;20249;-78
2023/01/11 13:08:34;;;;;;;3.27;2.97;;;;;;;;;;5034415;28;20207;-78
2023/01/11 13:11:04;;;;;;;4.87;2.40;;;;;;;;;;5031530;28;20735;-79
2023/01/11 13:13:36;;;;;;;2.97;2.60;;;;;;;;;;5031926;28;20237;-79
2023/01/11 13:16:06;;;;;;;2.33;2.17;;;;;;;;;;5031744;28;20230;-79
2023/01/11 13:18:35;;;;;;;2.40;2.20;;;;;;;;;;5032218;28;20573;-79
2023/01/11 13:21:08;;;;;;;6.57;2.00;;;;;;;;;;5031562;28;20226;-79
2023/01/11 13:23:39;;;;;;;1.73;1.63;;;;;;;;;;5031741;28;20230;-80
2023/01/11 13:26:10;;;;;;;3.50;1.77;;;;;;;;;;5031702;28;20269;-80
2023/01/11 13:28:39;;;;;;;1.60;1.50;;;;;;;;;;5032234;28;20206;-79
2023/01/11 13:31:08;;;;;;;1.60;1.50;;;;;;;;;;5031448;28;20235;-79
2023/01/11 13:33:36;;;;;;;1.77;1.67;;;;;;;;;;5031518;28;20757;-79
2023/01/11 13:36:06;;;;;;;1.80;1.70;;;;;;;;;;5031974;28;20581;-79
2023/01/11 13:38:37;;;;;;;1.30;1.20;;;;;;;;;;5031873;28;20671;-79
2023/01/11 13:41:09;;;;;;;6.33;2.63;;;;;;;;;;5031413;28;20234;-79
2023/01/11 13:43:39;;;;;;;1.87;1.77;;;;;;;;;;5031715;28;20241;-79
2023/01/11 13:46:10;;;;;;;4.07;2.47;;;;;;;;;;5031618;28;20230;-80
2023/01/11 13:48:41;;;;;;;1.70;1.60;;;;;;;;;;5032919;28;20211;-80
2023/01/11 13:51:14;;;;;;;1.93;1.70;;;;;;;;;;5032219;28;20238;-80
2023/01/11 13:53:45;;;;;;;2.33;1.50;;;;;;;;;;5032614;28;20233;-80
2023/01/11 13:56:14;;;;;;;2.00;1.80;;;;;;;;;;5031634;28;20249;-80
2023/01/11 13:58:49;;;;;;;1.80;1.70;;;;;;;;;;5033239;28;20659;-80
2023/01/11 14:01:18;;;;;;;2.30;2.10;;;;;;;;;;5031524;28;20241;-80
2023/01/11 14:03:47;;;;;;;2.93;2.30;;;;;;;;;;5032257;28;20694;-80
2023/01/11 14:06:26;;;;;;;3.87;2.10;;;;;;;;;;5033063;28;20237;-80
2023/01/11 14:09:10;;;;;;;2.20;2.10;;;;;;;;;;5036686;28;20206;-80
2023/01/11 14:11:43;;;;;;;2.40;2.20;;;;;;;;;;5036595;28;20292;-80
2023/01/11 14:14:22;;;;;;;2.30;2.20;;;;;;;;;;5035335;28;20239;-80
2023/01/11 14:16:54;;;;;;;2.10;2.00;;;;;;;;;;5036167;28;20242;-80
2023/01/11 14:19:25;;;;;;;2.83;2.10;;;;;;;;;;5035907;28;20210;-79
2023/01/11 14:22:01;;;;;;;2.37;2.00;;;;;;;;;;5036461;28;20265;-79
2023/01/11 14:24:29;;;;;;;2.00;1.77;;;;;;;;;;5037186;28;20230;-77
2023/01/11 14:27:02;;;;;;;2.50;2.20;;;;;;;;;;5035124;28;20231;-79
2023/01/11 14:29:57;;;;;;;3.13;1.87;;;;;;;;;;5036300;28;20218;-79
2023/01/11 14:32:54;;;;;;;2.17;1.97;;;;;;;;;;4982645;28;20766;-79
2023/01/11 14:35:45;;;;;;;1.83;1.70;;;;;;;;;;4981473;28;20228;-80
2023/01/11 14:38:34;;;;;;;3.40;2.00;;;;;;;;;;5012968;28;20202;-80
2023/01/11 14:41:13;;;;;;;2.30;1.60;;;;;;;;;;5042900;28;20233;-80
2023/01/11 14:43:56;;;;;;;1.90;1.80;;;;;;;;;;5042771;28;20201;-80
2023/01/11 14:46:55;;;;;;;2.23;1.50;;;;;;;;;;5040618;28;20253;-80
2023/01/11 14:49:33;;;;;;;1.90;1.80;;;;;;;;;;5042137;28;20211;-80
2023/01/11 14:52:02;;;;;;;3.93;2.00;;;;;;;;;;5036903;28;20233;-80
2023/01/11 14:54:37;;;;;;;1.90;1.80;;;;;;;;;;5041350;28;20243;-80
2023/01/11 14:57:04;;;;;;;2.63;2.43;;;;;;;;;;5038543;28;20234;-80
2023/01/11 14:59:36;;;;;;;3.10;2.27;;;;;;;;;;5037524;28;20207;-80
2023/01/11 15:02:16;;;;;;;3.53;2.50;;;;;;;;;;5033561;28;20231;-80
2023/01/11 15:05:02;;;;;;;3.03;2.10;;;;;;;;;;5034465;28;20228;-80
2023/01/11 15:07:35;;;;;;;2.10;2.00;;;;;;;;;;5034293;28;20246;-79
2023/01/11 15:10:04;;;;;;;2.63;1.70;;;;;;;;;;5034046;28;20317;-80
2023/01/11 15:12:33;;;;;;;3.57;2.13;;;;;;;;;;5034257;28;20211;-80
2023/01/11 15:15:03;;;;;;;2.60;2.13;;;;;;;;;;5033776;28;20262;-80
2023/01/11 15:20:27;;;;;;;2.30;2.20;;;;;;;;;;4993351;28;20243;-79